sensor_id;sensor_type;location;lat;lon;timestamp;P1;durP1;ratioP1;P2;durP2;ratioP2
17618;SDS011;8928;51.678;6.074;2023-08-07T00:01:46;16.50;;;2.33;;
17618;SDS011;8928;51.678;6.074;2023-08-07T00:04:33;15.30;;;2.53;;
17618;SDS011;8928;51.678;6.074;2023-08-07T00:07:20;17.90;;;2.30;;
17618;SDS011;8928;51.678;6.074;2023-08-07T00:10:07;15.23;;;2.30;;
17618;SDS011;8928;51.678;6.074;2023-08-07T00:12:55;14.43;;;2.50;;
17618;SDS011;8928;51.678;6.074;2023-08-07T00:15:42;16.00;;;2.30;;
17618;SDS011;8928;51.678;6.074;2023-08-07T00:18:30;17.30;;;2.43;;
17618;SDS011;8928;51.678;6.074;2023-08-07T00:21:17;17.93;;;2.70;;
17618;SDS011;8928;51.678;6.074;2023-08-07T00:24:04;20.47;;;2.77;;
17618;SDS011;8928;51.678;6.074;2023-08-07T00:26:51;14.50;;;2.47;;
17618;SDS011;8928;51.678;6.074;2023-08-07T00:29:38;16.27;;;2.30;;
17618;SDS011;8928;51.678;6.074;2023-08-07T00:32:26;20.23;;;2.60;;
17618;SDS011;8928;51.678;6.074;2023-08-07T00:35:14;13.50;;;2.30;;
17618;SDS011;8928;51.678;6.074;2023-08-07T00:38:01;15.20;;;2.60;;
17618;SDS011;8928;51.678;6.074;2023-08-07T00:40:48;15.83;;;2.60;;
17618;SDS011;8928;51.678;6.074;2023-08-07T00:43:35;17.60;;;2.93;;
17618;SDS011;8928;51.678;6.074;2023-08-07T00:46:22;14.57;;;2.83;;
17618;SDS011;8928;51.678;6.074;2023-08-07T00:49:11;22.20;;;2.60;;
17618;SDS011;8928;51.678;6.074;2023-08-07T00:52:00;21.27;;;2.93;;
17618;SDS011;8928;51.678;6.074;2023-08-07T00:54:47;22.80;;;2.83;;
17618;SDS011;8928;51.678;6.074;2023-08-07T00:57:34;17.13;;;3.10;;
17618;SDS011;8928;51.678;6.074;2023-08-07T01:00:21;12.43;;;2.80;;
17618;SDS011;8928;51.678;6.074;2023-08-07T01:03:08;19.53;;;3.30;;
17618;SDS011;8928;51.678;6.074;2023-08-07T01:05:58;14.27;;;3.03;;
17618;SDS011;8928;51.678;6.074;2023-08-07T01:08:47;18.90;;;2.70;;
17618;SDS011;8928;51.678;6.074;2023-08-07T01:11:34;15.47;;;2.73;;
17618;SDS011;8928;51.678;6.074;2023-08-07T01:14:31;17.53;;;2.83;;
17618;SDS011;8928;51.678;6.074;2023-08-07T01:17:27;21.93;;;3.30;;
17618;SDS011;8928;51.678;6.074;2023-08-07T01:20:15;15.00;;;3.10;;
17618;SDS011;8928;51.678;6.074;2023-08-07T01:23:03;23.23;;;3.40;;
17618;SDS011;8928;51.678;6.074;2023-08-07T01:25:50;17.50;;;3.10;;
17618;SDS011;8928;51.678;6.074;2023-08-07T01:28:38;18.40;;;3.20;;
17618;SDS011;8928;51.678;6.074;2023-08-07T01:31:32;19.87;;;3.30;;
17618;SDS011;8928;51.678;6.074;2023-08-07T01:34:20;18.23;;;3.13;;
17618;SDS011;8928;51.678;6.074;2023-08-07T01:37:10;21.77;;;3.37;;
17618;SDS011;8928;51.678;6.074;2023-08-07T01:40:00;19.70;;;3.30;;
17618;SDS011;8928;51.678;6.074;2023-08-07T01:42:49;18.33;;;3.30;;
17618;SDS011;8928;51.678;6.074;2023-08-07T01:45:37;23.50;;;3.57;;
17618;SDS011;8928;51.678;6.074;2023-08-07T01:48:24;17.77;;;2.93;;
17618;SDS011;8928;51.678;6.074;2023-08-07T01:51:11;21.83;;;3.53;;
17618;SDS011;8928;51.678;6.074;2023-08-07T01:53:58;19.10;;;3.03;;
17618;SDS011;8928;51.678;6.074;2023-08-07T01:56:46;18.83;;;3.20;;
17618;SDS011;8928;51.678;6.074;2023-08-07T01:59:33;18.43;;;3.33;;
17618;SDS011;8928;51.678;6.074;2023-08-07T02:02:20;27.87;;;3.40;;
17618;SDS011;8928;51.678;6.074;2023-08-07T02:05:09;17.07;;;3.27;;
17618;SDS011;8928;51.678;6.074;2023-08-07T02:07:56;19.73;;;3.20;;
17618;SDS011;8928;51.678;6.074;2023-08-07T02:10:43;19.73;;;3.03;;
17618;SDS011;8928;51.678;6.074;2023-08-07T02:13:31;26.37;;;2.87;;
17618;SDS011;8928;51.678;6.074;2023-08-07T02:16:18;21.07;;;3.07;;
17618;SDS011;8928;51.678;6.074;2023-08-07T02:19:06;18.40;;;2.87;;
17618;SDS011;8928;51.678;6.074;2023-08-07T02:21:53;20.50;;;3.40;;
17618;SDS011;8928;51.678;6.074;2023-08-07T02:24:40;16.10;;;2.70;;
17618;SDS011;8928;51.678;6.074;2023-08-07T02:27:27;22.10;;;3.30;;
17618;SDS011;8928;51.678;6.074;2023-08-07T02:30:16;18.13;;;2.80;;
17618;SDS011;8928;51.678;6.074;2023-08-07T02:33:03;15.27;;;2.80;;
17618;SDS011;8928;51.678;6.074;2023-08-07T02:35:50;19.03;;;3.27;;
17618;SDS011;8928;51.678;6.074;2023-08-07T02:38:37;23.33;;;3.03;;
17618;SDS011;8928;51.678;6.074;2023-08-07T02:41:24;20.07;;;2.80;;
17618;SDS011;8928;51.678;6.074;2023-08-07T02:44:11;22.13;;;2.90;;
17618;SDS011;8928;51.678;6.074;2023-08-07T02:46:59;17.63;;;2.97;;
17618;SDS011;8928;51.678;6.074;2023-08-07T02:49:46;20.03;;;3.47;;
17618;SDS011;8928;51.678;6.074;2023-08-07T02:52:33;22.33;;;3.23;;
17618;SDS011;8928;51.678;6.074;2023-08-07T02:55:20;20.73;;;3.27;;
17618;SDS011;8928;51.678;6.074;2023-08-07T02:58:08;17.13;;;2.87;;
17618;SDS011;8928;51.678;6.074;2023-08-07T03:00:55;11.70;;;2.67;;
17618;SDS011;8928;51.678;6.074;2023-08-07T03:03:43;16.17;;;2.60;;
17618;SDS011;8928;51.678;6.074;2023-08-07T03:06:30;16.97;;;2.90;;
17618;SDS011;8928;51.678;6.074;2023-08-07T03:09:17;13.10;;;2.67;;
17618;SDS011;8928;51.678;6.074;2023-08-07T03:12:04;12.53;;;2.57;;
17618;SDS011;8928;51.678;6.074;2023-08-07T03:14:52;16.27;;;2.83;;
17618;SDS011;8928;51.678;6.074;2023-08-07T03:17:39;13.30;;;2.50;;
17618;SDS011;8928;51.678;6.074;2023-08-07T03:20:27;21.17;;;3.00;;
17618;SDS011;8928;51.678;6.074;2023-08-07T03:23:14;13.80;;;2.83;;
17618;SDS011;8928;51.678;6.074;2023-08-07T03:26:02;12.47;;;2.70;;
17618;SDS011;8928;51.678;6.074;2023-08-07T03:28:49;17.90;;;3.57;;
17618;SDS011;8928;51.678;6.074;2023-08-07T03:31:36;15.70;;;3.07;;
17618;SDS011;8928;51.678;6.074;2023-08-07T03:34:23;19.90;;;3.40;;
17618;SDS011;8928;51.678;6.074;2023-08-07T03:37:12;21.73;;;3.10;;
17618;SDS011;8928;51.678;6.074;2023-08-07T03:39:59;15.93;;;3.03;;
17618;SDS011;8928;51.678;6.074;2023-08-07T03:42:46;10.90;;;3.27;;
17618;SDS011;8928;51.678;6.074;2023-08-07T03:45:33;16.03;;;3.10;;
17618;SDS011;8928;51.678;6.074;2023-08-07T03:48:20;23.10;;;3.30;;
17618;SDS011;8928;51.678;6.074;2023-08-07T03:51:07;22.07;;;3.53;;
17618;SDS011;8928;51.678;6.074;2023-08-07T03:53:56;14.13;;;3.17;;
17618;SDS011;8928;51.678;6.074;2023-08-07T03:56:43;25.77;;;3.50;;
17618;SDS011;8928;51.678;6.074;2023-08-07T03:59:30;18.43;;;3.53;;
17618;SDS011;8928;51.678;6.074;2023-08-07T04:02:17;18.93;;;3.40;;
17618;SDS011;8928;51.678;6.074;2023-08-07T04:05:04;20.00;;;3.70;;
17618;SDS011;8928;51.678;6.074;2023-08-07T04:07:51;22.87;;;3.40;;
17618;SDS011;8928;51.678;6.074;2023-08-07T04:10:39;20.17;;;3.53;;
17618;SDS011;8928;51.678;6.074;2023-08-07T04:13:27;16.37;;;3.50;;
17618;SDS011;8928;51.678;6.074;2023-08-07T04:16:14;22.83;;;3.60;;
17618;SDS011;8928;51.678;6.074;2023-08-07T04:19:02;23.37;;;3.63;;
17618;SDS011;8928;51.678;6.074;2023-08-07T04:21:49;27.93;;;3.70;;
17618;SDS011;8928;51.678;6.074;2023-08-07T04:24:36;14.73;;;3.43;;
17618;SDS011;8928;51.678;6.074;2023-08-07T04:27:24;24.00;;;4.00;;
17618;SDS011;8928;51.678;6.074;2023-08-07T04:30:12;21.40;;;3.47;;
17618;SDS011;8928;51.678;6.074;2023-08-07T04:32:59;24.17;;;3.90;;
17618;SDS011;8928;51.678;6.074;2023-08-07T04:35:46;18.17;;;3.93;;
17618;SDS011;8928;51.678;6.074;2023-08-07T04:38:33;19.70;;;3.80;;
17618;SDS011;8928;51.678;6.074;2023-08-07T04:41:20;22.00;;;4.03;;
17618;SDS011;8928;51.678;6.074;2023-08-07T04:44:09;21.53;;;4.00;;
17618;SDS011;8928;51.678;6.074;2023-08-07T04:46:56;25.33;;;4.30;;
17618;SDS011;8928;51.678;6.074;2023-08-07T04:49:43;20.93;;;4.27;;
17618;SDS011;8928;51.678;6.074;2023-08-07T04:52:30;21.30;;;4.23;;
17618;SDS011;8928;51.678;6.074;2023-08-07T04:55:17;23.97;;;4.00;;
17618;SDS011;8928;51.678;6.074;2023-08-07T04:58:04;24.27;;;4.00;;
17618;SDS011;8928;51.678;6.074;2023-08-07T05:00:55;28.57;;;4.23;;
17618;SDS011;8928;51.678;6.074;2023-08-07T05:03:42;28.17;;;4.30;;
17618;SDS011;8928;51.678;6.074;2023-08-07T05:06:29;18.77;;;3.53;;
17618;SDS011;8928;51.678;6.074;2023-08-07T05:09:17;23.23;;;4.00;;
17618;SDS011;8928;51.678;6.074;2023-08-07T05:12:04;22.83;;;4.13;;
17618;SDS011;8928;51.678;6.074;2023-08-07T05:14:52;24.27;;;4.20;;
17618;SDS011;8928;51.678;6.074;2023-08-07T05:17:41;21.83;;;4.20;;
17618;SDS011;8928;51.678;6.074;2023-08-07T05:20:28;18.73;;;3.80;;
17618;SDS011;8928;51.678;6.074;2023-08-07T05:23:15;17.67;;;3.87;;
17618;SDS011;8928;51.678;6.074;2023-08-07T05:26:02;18.43;;;4.10;;
17618;SDS011;8928;51.678;6.074;2023-08-07T05:28:49;21.43;;;4.20;;
17618;SDS011;8928;51.678;6.074;2023-08-07T05:31:36;20.80;;;3.97;;
17618;SDS011;8928;51.678;6.074;2023-08-07T05:34:24;18.70;;;3.63;;
17618;SDS011;8928;51.678;6.074;2023-08-07T05:37:11;16.87;;;3.63;;
17618;SDS011;8928;51.678;6.074;2023-08-07T05:39:58;21.07;;;3.80;;
17618;SDS011;8928;51.678;6.074;2023-08-07T05:42:46;14.43;;;3.57;;
17618;SDS011;8928;51.678;6.074;2023-08-07T05:45:33;13.47;;;3.80;;
17618;SDS011;8928;51.678;6.074;2023-08-07T05:48:20;18.40;;;3.60;;
17618;SDS011;8928;51.678;6.074;2023-08-07T05:51:08;20.83;;;4.30;;
17618;SDS011;8928;51.678;6.074;2023-08-07T05:53:55;21.53;;;4.43;;
17618;SDS011;8928;51.678;6.074;2023-08-07T05:56:42;20.23;;;4.20;;
17618;SDS011;8928;51.678;6.074;2023-08-07T05:59:30;21.93;;;4.60;;
17618;SDS011;8928;51.678;6.074;2023-08-07T06:02:17;24.00;;;4.20;;
17618;SDS011;8928;51.678;6.074;2023-08-07T06:05:05;19.00;;;3.90;;
17618;SDS011;8928;51.678;6.074;2023-08-07T06:07:54;24.83;;;4.53;;
17618;SDS011;8928;51.678;6.074;2023-08-07T06:10:41;22.33;;;4.17;;
17618;SDS011;8928;51.678;6.074;2023-08-07T06:13:28;20.37;;;3.90;;
17618;SDS011;8928;51.678;6.074;2023-08-07T06:16:15;18.23;;;3.67;;
17618;SDS011;8928;51.678;6.074;2023-08-07T06:19:02;17.83;;;4.10;;
17618;SDS011;8928;51.678;6.074;2023-08-07T06:21:49;21.97;;;4.20;;
17618;SDS011;8928;51.678;6.074;2023-08-07T06:24:38;16.70;;;3.73;;
17618;SDS011;8928;51.678;6.074;2023-08-07T06:27:25;21.10;;;4.57;;
17618;SDS011;8928;51.678;6.074;2023-08-07T06:30:12;22.40;;;4.57;;
17618;SDS011;8928;51.678;6.074;2023-08-07T06:32:59;17.53;;;4.20;;
17618;SDS011;8928;51.678;6.074;2023-08-07T06:35:46;21.40;;;4.47;;
17618;SDS011;8928;51.678;6.074;2023-08-07T06:38:34;21.40;;;4.30;;
17618;SDS011;8928;51.678;6.074;2023-08-07T06:41:22;13.67;;;3.57;;
17618;SDS011;8928;51.678;6.074;2023-08-07T06:44:09;12.00;;;3.43;;
17618;SDS011;8928;51.678;6.074;2023-08-07T06:46:56;14.63;;;4.27;;
17618;SDS011;8928;51.678;6.074;2023-08-07T06:49:43;13.57;;;2.87;;
17618;SDS011;8928;51.678;6.074;2023-08-07T06:52:31;8.63;;;2.40;;
17618;SDS011;8928;51.678;6.074;2023-08-07T06:55:18;7.77;;;2.20;;
17618;SDS011;8928;51.678;6.074;2023-08-07T06:58:06;6.87;;;2.07;;
17618;SDS011;8928;51.678;6.074;2023-08-07T07:00:54;8.97;;;2.53;;
17618;SDS011;8928;51.678;6.074;2023-08-07T07:03:41;12.30;;;2.60;;
17618;SDS011;8928;51.678;6.074;2023-08-07T07:06:29;8.70;;;2.60;;
17618;SDS011;8928;51.678;6.074;2023-08-07T07:09:16;14.80;;;2.87;;
17618;SDS011;8928;51.678;6.074;2023-08-07T07:12:03;16.30;;;3.10;;
17618;SDS011;8928;51.678;6.074;2023-08-07T07:14:52;13.83;;;3.30;;
17618;SDS011;8928;51.678;6.074;2023-08-07T07:17:39;12.43;;;3.13;;
17618;SDS011;8928;51.678;6.074;2023-08-07T07:20:26;16.77;;;3.30;;
17618;SDS011;8928;51.678;6.074;2023-08-07T07:23:13;14.10;;;3.10;;
17618;SDS011;8928;51.678;6.074;2023-08-07T07:26:00;11.87;;;2.80;;
17618;SDS011;8928;51.678;6.074;2023-08-07T07:28:48;16.37;;;3.23;;
17618;SDS011;8928;51.678;6.074;2023-08-07T07:31:37;13.87;;;3.63;;
17618;SDS011;8928;51.678;6.074;2023-08-07T07:34:24;15.67;;;3.20;;
17618;SDS011;8928;51.678;6.074;2023-08-07T07:37:12;9.80;;;2.63;;
17618;SDS011;8928;51.678;6.074;2023-08-07T07:40:02;9.37;;;2.40;;
17618;SDS011;8928;51.678;6.074;2023-08-07T07:42:49;11.90;;;2.53;;
17618;SDS011;8928;51.678;6.074;2023-08-07T07:45:37;10.93;;;2.63;;
17618;SDS011;8928;51.678;6.074;2023-08-07T07:48:25;9.10;;;2.57;;
17618;SDS011;8928;51.678;6.074;2023-08-07T07:51:12;12.97;;;2.50;;
17618;SDS011;8928;51.678;6.074;2023-08-07T07:53:59;11.83;;;2.70;;
17618;SDS011;8928;51.678;6.074;2023-08-07T07:56:46;15.90;;;3.13;;
17618;SDS011;8928;51.678;6.074;2023-08-07T07:59:33;12.13;;;3.13;;
17618;SDS011;8928;51.678;6.074;2023-08-07T08:02:20;14.30;;;3.00;;
17618;SDS011;8928;51.678;6.074;2023-08-07T08:05:10;16.30;;;3.30;;
17618;SDS011;8928;51.678;6.074;2023-08-07T08:07:58;10.03;;;2.73;;
17618;SDS011;8928;51.678;6.074;2023-08-07T08:10:45;17.00;;;3.30;;
17618;SDS011;8928;51.678;6.074;2023-08-07T08:13:33;11.73;;;3.10;;
17618;SDS011;8928;51.678;6.074;2023-08-07T08:16:24;13.00;;;3.50;;
17618;SDS011;8928;51.678;6.074;2023-08-07T08:19:11;11.63;;;3.20;;
17618;SDS011;8928;51.678;6.074;2023-08-07T08:22:00;11.87;;;3.40;;
17618;SDS011;8928;51.678;6.074;2023-08-07T08:24:47;13.63;;;3.23;;
17618;SDS011;8928;51.678;6.074;2023-08-07T08:27:34;14.50;;;3.57;;
17618;SDS011;8928;51.678;6.074;2023-08-07T08:30:21;15.93;;;3.70;;
17618;SDS011;8928;51.678;6.074;2023-08-07T08:33:08;14.83;;;3.40;;
17618;SDS011;8928;51.678;6.074;2023-08-07T08:35:58;13.43;;;3.33;;
17618;SDS011;8928;51.678;6.074;2023-08-07T08:38:46;11.97;;;2.90;;
17618;SDS011;8928;51.678;6.074;2023-08-07T08:41:33;12.17;;;2.60;;
17618;SDS011;8928;51.678;6.074;2023-08-07T08:44:21;13.37;;;3.20;;
17618;SDS011;8928;51.678;6.074;2023-08-07T08:47:10;12.40;;;3.33;;
17618;SDS011;8928;51.678;6.074;2023-08-07T08:49:58;15.03;;;3.97;;
17618;SDS011;8928;51.678;6.074;2023-08-07T08:52:48;11.60;;;3.10;;
17618;SDS011;8928;51.678;6.074;2023-08-07T08:55:40;21.70;;;4.53;;
17618;SDS011;8928;51.678;6.074;2023-08-07T08:58:31;27.13;;;5.87;;
17618;SDS011;8928;51.678;6.074;2023-08-07T09:01:19;22.23;;;4.73;;
17618;SDS011;8928;51.678;6.074;2023-08-07T09:04:07;23.57;;;4.47;;
17618;SDS011;8928;51.678;6.074;2023-08-07T09:06:55;25.30;;;5.27;;
17618;SDS011;8928;51.678;6.074;2023-08-07T09:09:42;20.93;;;4.50;;
17618;SDS011;8928;51.678;6.074;2023-08-07T09:12:33;16.17;;;3.80;;
17618;SDS011;8928;51.678;6.074;2023-08-07T09:15:23;21.63;;;4.60;;
17618;SDS011;8928;51.678;6.074;2023-08-07T09:18:12;16.10;;;3.77;;
17618;SDS011;8928;51.678;6.074;2023-08-07T09:20:59;13.07;;;3.73;;
17618;SDS011;8928;51.678;6.074;2023-08-07T09:23:46;16.20;;;3.43;;
17618;SDS011;8928;51.678;6.074;2023-08-07T09:26:33;16.37;;;3.03;;
17618;SDS011;8928;51.678;6.074;2023-08-07T09:29:22;15.80;;;3.23;;
17618;SDS011;8928;51.678;6.074;2023-08-07T09:32:11;15.07;;;3.40;;
17618;SDS011;8928;51.678;6.074;2023-08-07T09:35:01;15.93;;;3.23;;
17618;SDS011;8928;51.678;6.074;2023-08-07T09:37:49;13.10;;;2.63;;
17618;SDS011;8928;51.678;6.074;2023-08-07T09:40:37;11.50;;;2.80;;
17618;SDS011;8928;51.678;6.074;2023-08-07T09:43:24;11.67;;;2.53;;
17618;SDS011;8928;51.678;6.074;2023-08-07T09:46:12;19.07;;;2.80;;
17618;SDS011;8928;51.678;6.074;2023-08-07T09:48:59;13.33;;;2.50;;
17618;SDS011;8928;51.678;6.074;2023-08-07T09:51:47;12.53;;;2.27;;
17618;SDS011;8928;51.678;6.074;2023-08-07T09:54:36;12.27;;;2.30;;
17618;SDS011;8928;51.678;6.074;2023-08-07T09:57:24;13.43;;;2.60;;
17618;SDS011;8928;51.678;6.074;2023-08-07T10:00:11;13.40;;;2.50;;
17618;SDS011;8928;51.678;6.074;2023-08-07T10:03:01;11.40;;;2.30;;
17618;SDS011;8928;51.678;6.074;2023-08-07T10:05:49;8.33;;;2.43;;
17618;SDS011;8928;51.678;6.074;2023-08-07T10:08:37;16.23;;;2.50;;
17618;SDS011;8928;51.678;6.074;2023-08-07T10:11:25;9.73;;;2.45;;
17618;SDS011;8928;51.678;6.074;2023-08-07T10:14:13;10.73;;;2.20;;
17618;SDS011;8928;51.678;6.074;2023-08-07T10:17:01;11.23;;;2.13;;
17618;SDS011;8928;51.678;6.074;2023-08-07T10:19:51;10.20;;;2.20;;
17618;SDS011;8928;51.678;6.074;2023-08-07T10:22:38;14.93;;;2.17;;
17618;SDS011;8928;51.678;6.074;2023-08-07T10:25:26;10.40;;;2.20;;
17618;SDS011;8928;51.678;6.074;2023-08-07T10:28:16;9.53;;;1.90;;
17618;SDS011;8928;51.678;6.074;2023-08-07T10:31:05;11.47;;;2.37;;
17618;SDS011;8928;51.678;6.074;2023-08-07T10:33:53;9.10;;;2.47;;
17618;SDS011;8928;51.678;6.074;2023-08-07T10:36:41;11.55;;;2.35;;
17618;SDS011;8928;51.678;6.074;2023-08-07T10:39:28;13.23;;;2.55;;
17618;SDS011;8928;51.678;6.074;2023-08-07T10:42:16;12.25;;;3.15;;
17618;SDS011;8928;51.678;6.074;2023-08-07T10:45:03;18.25;;;2.60;;
17618;SDS011;8928;51.678;6.074;2023-08-07T10:48:01;12.63;;;2.38;;
17618;SDS011;8928;51.678;6.074;2023-08-07T10:50:49;10.57;;;2.28;;
17618;SDS011;8928;51.678;6.074;2023-08-07T10:53:41;12.73;;;2.30;;
17618;SDS011;8928;51.678;6.074;2023-08-07T10:56:31;14.15;;;2.40;;
17618;SDS011;8928;51.678;6.074;2023-08-07T10:59:18;10.70;;;1.98;;
17618;SDS011;8928;51.678;6.074;2023-08-07T11:02:07;16.90;;;2.50;;
17618;SDS011;8928;51.678;6.074;2023-08-07T11:04:57;10.23;;;2.13;;
17618;SDS011;8928;51.678;6.074;2023-08-07T11:07:45;10.80;;;2.13;;
17618;SDS011;8928;51.678;6.074;2023-08-07T11:10:33;10.52;;;2.00;;
17618;SDS011;8928;51.678;6.074;2023-08-07T11:13:20;13.23;;;2.47;;
17618;SDS011;8928;51.678;6.074;2023-08-07T11:16:07;9.07;;;2.10;;
17618;SDS011;8928;51.678;6.074;2023-08-07T11:18:54;10.05;;;2.00;;
17618;SDS011;8928;51.678;6.074;2023-08-07T11:21:42;13.38;;;2.00;;
17618;SDS011;8928;51.678;6.074;2023-08-07T11:24:29;10.40;;;2.38;;
17618;SDS011;8928;51.678;6.074;2023-08-07T11:27:20;7.38;;;1.85;;
17618;SDS011;8928;51.678;6.074;2023-08-07T11:30:10;8.50;;;1.73;;
17618;SDS011;8928;51.678;6.074;2023-08-07T11:32:58;6.43;;;1.63;;
17618;SDS011;8928;51.678;6.074;2023-08-07T11:35:45;10.85;;;2.08;;
17618;SDS011;8928;51.678;6.074;2023-08-07T11:38:34;9.25;;;2.28;;
17618;SDS011;8928;51.678;6.074;2023-08-07T11:41:23;8.77;;;2.10;;
17618;SDS011;8928;51.678;6.074;2023-08-07T11:44:11;11.47;;;2.30;;
17618;SDS011;8928;51.678;6.074;2023-08-07T11:46:58;9.67;;;2.10;;
17618;SDS011;8928;51.678;6.074;2023-08-07T11:49:46;8.97;;;2.00;;
17618;SDS011;8928;51.678;6.074;2023-08-07T11:52:34;10.25;;;1.98;;
17618;SDS011;8928;51.678;6.074;2023-08-07T11:55:21;15.32;;;2.38;;
17618;SDS011;8928;51.678;6.074;2023-08-07T11:58:10;11.43;;;2.20;;
17618;SDS011;8928;51.678;6.074;2023-08-07T12:00:59;10.30;;;2.00;;
17618;SDS011;8928;51.678;6.074;2023-08-07T12:03:51;13.25;;;2.35;;
17618;SDS011;8928;51.678;6.074;2023-08-07T12:06:45;11.63;;;2.20;;
17618;SDS011;8928;51.678;6.074;2023-08-07T12:09:39;10.15;;;1.85;;
17618;SDS011;8928;51.678;6.074;2023-08-07T12:12:27;7.55;;;2.00;;
17618;SDS011;8928;51.678;6.074;2023-08-07T12:15:16;7.50;;;1.80;;
17618;SDS011;8928;51.678;6.074;2023-08-07T12:18:06;6.35;;;1.52;;
17618;SDS011;8928;51.678;6.074;2023-08-07T12:20:56;7.97;;;1.60;;
17618;SDS011;8928;51.678;6.074;2023-08-07T12:23:44;10.60;;;1.92;;
17618;SDS011;8928;51.678;6.074;2023-08-07T12:26:33;7.95;;;1.55;;
17618;SDS011;8928;51.678;6.074;2023-08-07T12:29:20;9.43;;;1.83;;
17618;SDS011;8928;51.678;6.074;2023-08-07T12:32:08;9.05;;;1.92;;
17618;SDS011;8928;51.678;6.074;2023-08-07T12:34:57;8.30;;;1.70;;
17618;SDS011;8928;51.678;6.074;2023-08-07T12:37:44;9.73;;;1.60;;
17618;SDS011;8928;51.678;6.074;2023-08-07T12:40:31;10.75;;;2.00;;
17618;SDS011;8928;51.678;6.074;2023-08-07T12:43:21;7.25;;;1.88;;
17618;SDS011;8928;51.678;6.074;2023-08-07T12:46:08;7.80;;;1.80;;
17618;SDS011;8928;51.678;6.074;2023-08-07T12:48:55;6.15;;;1.75;;
17618;SDS011;8928;51.678;6.074;2023-08-07T12:51:43;9.20;;;1.63;;
17618;SDS011;8928;51.678;6.074;2023-08-07T12:54:30;9.00;;;1.70;;
17618;SDS011;8928;51.678;6.074;2023-08-07T12:57:17;7.43;;;1.92;;
17618;SDS011;8928;51.678;6.074;2023-08-07T13:00:05;6.50;;;1.90;;
17618;SDS011;8928;51.678;6.074;2023-08-07T13:02:53;6.07;;;1.90;;
17618;SDS011;8928;51.678;6.074;2023-08-07T13:05:41;7.53;;;1.60;;
17618;SDS011;8928;51.678;6.074;2023-08-07T13:08:29;6.40;;;1.70;;
17618;SDS011;8928;51.678;6.074;2023-08-07T13:11:18;7.05;;;1.70;;
17618;SDS011;8928;51.678;6.074;2023-08-07T13:14:05;6.97;;;1.35;;
17618;SDS011;8928;51.678;6.074;2023-08-07T13:16:52;7.90;;;1.60;;
17618;SDS011;8928;51.678;6.074;2023-08-07T13:19:39;4.68;;;1.60;;
17618;SDS011;8928;51.678;6.074;2023-08-07T13:22:26;6.03;;;1.48;;
17618;SDS011;8928;51.678;6.074;2023-08-07T13:25:15;7.13;;;1.40;;
17618;SDS011;8928;51.678;6.074;2023-08-07T13:28:02;8.68;;;1.42;;
17618;SDS011;8928;51.678;6.074;2023-08-07T13:30:51;4.45;;;1.52;;
17618;SDS011;8928;51.678;6.074;2023-08-07T13:33:41;4.72;;;1.30;;
17618;SDS011;8928;51.678;6.074;2023-08-07T13:36:28;3.88;;;1.40;;
17618;SDS011;8928;51.678;6.074;2023-08-07T13:39:15;5.85;;;1.40;;
17618;SDS011;8928;51.678;6.074;2023-08-07T13:42:03;5.63;;;1.65;;
17618;SDS011;8928;51.678;6.074;2023-08-07T13:44:51;4.68;;;1.30;;
17618;SDS011;8928;51.678;6.074;2023-08-07T13:47:38;6.38;;;1.25;;
17618;SDS011;8928;51.678;6.074;2023-08-07T13:50:26;6.78;;;1.50;;
17618;SDS011;8928;51.678;6.074;2023-08-07T13:53:13;5.40;;;1.48;;
17618;SDS011;8928;51.678;6.074;2023-08-07T13:56:00;4.40;;;1.20;;
17618;SDS011;8928;51.678;6.074;2023-08-07T13:58:48;4.07;;;1.27;;
17618;SDS011;8928;51.678;6.074;2023-08-07T14:01:35;7.20;;;1.40;;
17618;SDS011;8928;51.678;6.074;2023-08-07T14:04:22;5.93;;;1.30;;
17618;SDS011;8928;51.678;6.074;2023-08-07T14:07:09;3.30;;;1.20;;
17618;SDS011;8928;51.678;6.074;2023-08-07T14:09:57;4.43;;;1.30;;
17618;SDS011;8928;51.678;6.074;2023-08-07T14:12:44;4.15;;;1.20;;
17618;SDS011;8928;51.678;6.074;2023-08-07T14:15:33;3.88;;;1.10;;
17618;SDS011;8928;51.678;6.074;2023-08-07T14:18:20;7.70;;;1.30;;
17618;SDS011;8928;51.678;6.074;2023-08-07T14:21:07;4.70;;;1.20;;
17618;SDS011;8928;51.678;6.074;2023-08-07T14:23:54;6.88;;;1.10;;
17618;SDS011;8928;51.678;6.074;2023-08-07T14:26:41;5.07;;;1.30;;
17618;SDS011;8928;51.678;6.074;2023-08-07T14:29:28;4.70;;;1.20;;
17618;SDS011;8928;51.678;6.074;2023-08-07T14:32:17;4.43;;;1.20;;
17618;SDS011;8928;51.678;6.074;2023-08-07T14:35:04;4.00;;;1.52;;
17618;SDS011;8928;51.678;6.074;2023-08-07T14:37:52;4.38;;;1.40;;
17618;SDS011;8928;51.678;6.074;2023-08-07T14:40:39;7.35;;;1.33;;
17618;SDS011;8928;51.678;6.074;2023-08-07T14:43:28;4.93;;;1.40;;
17618;SDS011;8928;51.678;6.074;2023-08-07T14:46:16;4.80;;;1.40;;
17618;SDS011;8928;51.678;6.074;2023-08-07T14:49:05;6.07;;;1.50;;
17618;SDS011;8928;51.678;6.074;2023-08-07T14:51:52;4.40;;;1.80;;
17618;SDS011;8928;51.678;6.074;2023-08-07T14:54:40;6.28;;;1.65;;
17618;SDS011;8928;51.678;6.074;2023-08-07T14:57:27;6.03;;;1.92;;
17618;SDS011;8928;51.678;6.074;2023-08-07T15:00:14;6.53;;;2.00;;
17618;SDS011;8928;51.678;6.074;2023-08-07T15:03:03;5.80;;;1.88;;
17618;SDS011;8928;51.678;6.074;2023-08-07T15:05:52;4.68;;;1.83;;
17618;SDS011;8928;51.678;6.074;2023-08-07T15:08:39;5.95;;;1.75;;
17618;SDS011;8928;51.678;6.074;2023-08-07T15:11:26;11.98;;;1.98;;
17618;SDS011;8928;51.678;6.074;2023-08-07T15:14:13;7.20;;;1.80;;
17618;SDS011;8928;51.678;6.074;2023-08-07T15:17:00;6.22;;;2.00;;
17618;SDS011;8928;51.678;6.074;2023-08-07T15:19:47;4.25;;;1.70;;
17618;SDS011;8928;51.678;6.074;2023-08-07T15:22:35;5.00;;;1.70;;
17618;SDS011;8928;51.678;6.074;2023-08-07T15:25:22;6.68;;;2.63;;
17618;SDS011;8928;51.678;6.074;2023-08-07T15:28:09;8.70;;;2.20;;
17618;SDS011;8928;51.678;6.074;2023-08-07T15:30:56;6.32;;;1.85;;
17618;SDS011;8928;51.678;6.074;2023-08-07T15:33:43;8.25;;;1.98;;
17618;SDS011;8928;51.678;6.074;2023-08-07T15:36:34;5.00;;;1.65;;
17618;SDS011;8928;51.678;6.074;2023-08-07T15:39:22;6.70;;;2.03;;
17618;SDS011;8928;51.678;6.074;2023-08-07T15:42:09;5.65;;;1.83;;
17618;SDS011;8928;51.678;6.074;2023-08-07T15:44:57;6.20;;;1.98;;
17618;SDS011;8928;51.678;6.074;2023-08-07T15:47:44;5.47;;;1.85;;
17618;SDS011;8928;51.678;6.074;2023-08-07T15:50:31;4.57;;;1.70;;
17618;SDS011;8928;51.678;6.074;2023-08-07T15:53:22;3.88;;;1.65;;
17618;SDS011;8928;51.678;6.074;2023-08-07T15:56:10;5.75;;;1.55;;
17618;SDS011;8928;51.678;6.074;2023-08-07T15:58:57;6.78;;;1.60;;
17618;SDS011;8928;51.678;6.074;2023-08-07T16:01:44;6.97;;;1.67;;
17618;SDS011;8928;51.678;6.074;2023-08-07T16:04:31;7.82;;;1.60;;
17618;SDS011;8928;51.678;6.074;2023-08-07T16:07:18;5.22;;;1.52;;
17618;SDS011;8928;51.678;6.074;2023-08-07T16:10:06;5.40;;;1.70;;
17618;SDS011;8928;51.678;6.074;2023-08-07T16:12:55;7.13;;;1.70;;
17618;SDS011;8928;51.678;6.074;2023-08-07T16:15:42;4.72;;;1.75;;
17618;SDS011;8928;51.678;6.074;2023-08-07T16:18:29;6.30;;;1.65;;
17618;SDS011;8928;51.678;6.074;2023-08-07T16:21:16;5.23;;;1.80;;
17618;SDS011;8928;51.678;6.074;2023-08-07T16:24:03;5.07;;;1.87;;
17618;SDS011;8928;51.678;6.074;2023-08-07T16:26:51;6.67;;;2.10;;
17618;SDS011;8928;51.678;6.074;2023-08-07T16:29:39;5.10;;;2.13;;
17618;SDS011;8928;51.678;6.074;2023-08-07T16:32:26;5.13;;;2.00;;
17618;SDS011;8928;51.678;6.074;2023-08-07T16:35:13;4.93;;;2.20;;
17618;SDS011;8928;51.678;6.074;2023-08-07T16:38:01;4.95;;;1.75;;
17618;SDS011;8928;51.678;6.074;2023-08-07T16:40:49;6.72;;;1.90;;
17618;SDS011;8928;51.678;6.074;2023-08-07T16:43:36;2.88;;;1.42;;
17618;SDS011;8928;51.678;6.074;2023-08-07T16:46:24;5.40;;;2.85;;
17618;SDS011;8928;51.678;6.074;2023-08-07T16:49:11;5.85;;;1.90;;
17618;SDS011;8928;51.678;6.074;2023-08-07T16:51:58;3.75;;;1.42;;
17618;SDS011;8928;51.678;6.074;2023-08-07T16:54:45;2.60;;;1.50;;
17618;SDS011;8928;51.678;6.074;2023-08-07T16:57:34;4.78;;;1.60;;